sensor_id;sensor_type;location;lat;lon;timestamp;P1;durP1;ratioP1;P2;durP2;ratioP2
83326;SDS011;73250;55.594;13.020;2023-11-19T00:00:43;31.48;;;23.15;;
83326;SDS011;73250;55.594;13.020;2023-11-19T00:03:09;30.48;;;23.58;;
83326;SDS011;73250;55.594;13.020;2023-11-19T00:05:38;32.78;;;24.38;;
83326;SDS011;73250;55.594;13.020;2023-11-19T00:08:06;33.85;;;25.52;;
83326;SDS011;73250;55.594;13.020;2023-11-19T00:10:33;29.95;;;23.27;;
83326;SDS011;73250;55.594;13.020;2023-11-19T00:13:00;28.08;;;21.77;;
83326;SDS011;73250;55.594;13.020;2023-11-19T00:15:28;34.25;;;25.55;;
83326;SDS011;73250;55.594;13.020;2023-11-19T00:17:55;26.00;;;21.33;;
83326;SDS011;73250;55.594;13.020;2023-11-19T00:20:21;28.02;;;21.55;;
83326;SDS011;73250;55.594;13.020;2023-11-19T00:22:48;30.27;;;22.65;;
83326;SDS011;73250;55.594;13.020;2023-11-19T00:25:17;33.78;;;25.02;;
83326;SDS011;73250;55.594;13.020;2023-11-19T00:27:44;23.77;;;18.58;;
83326;SDS011;73250;55.594;13.020;2023-11-19T00:30:10;35.90;;;26.92;;
83326;SDS011;73250;55.594;13.020;2023-11-19T00:32:38;27.83;;;21.98;;
83326;SDS011;73250;55.594;13.020;2023-11-19T00:35:05;28.55;;;20.90;;
83326;SDS011;73250;55.594;13.020;2023-11-19T00:37:33;34.13;;;25.02;;
83326;SDS011;73250;55.594;13.020;2023-11-19T00:40:00;33.08;;;26.00;;
83326;SDS011;73250;55.594;13.020;2023-11-19T00:42:31;30.35;;;23.45;;
83326;SDS011;73250;55.594;13.020;2023-11-19T00:44:58;36.42;;;28.08;;
83326;SDS011;73250;55.594;13.020;2023-11-19T00:47:26;31.98;;;25.27;;
83326;SDS011;73250;55.594;13.020;2023-11-19T00:49:53;28.15;;;21.98;;
83326;SDS011;73250;55.594;13.020;2023-11-19T00:52:19;31.23;;;22.58;;
83326;SDS011;73250;55.594;13.020;2023-11-19T00:54:47;25.83;;;20.50;;
83326;SDS011;73250;55.594;13.020;2023-11-19T00:57:13;24.55;;;19.73;;
83326;SDS011;73250;55.594;13.020;2023-11-19T00:59:42;32.90;;;26.85;;
83326;SDS011;73250;55.594;13.020;2023-11-19T01:02:09;29.58;;;22.77;;
83326;SDS011;73250;55.594;13.020;2023-11-19T01:04:36;24.77;;;19.50;;
83326;SDS011;73250;55.594;13.020;2023-11-19T01:07:03;25.73;;;19.13;;
83326;SDS011;73250;55.594;13.020;2023-11-19T01:09:30;26.38;;;20.55;;
83326;SDS011;73250;55.594;13.020;2023-11-19T01:11:57;29.50;;;23.20;;
83326;SDS011;73250;55.594;13.020;2023-11-19T01:14:25;30.27;;;21.67;;
83326;SDS011;73250;55.594;13.020;2023-11-19T01:16:53;26.17;;;20.88;;
83326;SDS011;73250;55.594;13.020;2023-11-19T01:19:20;28.27;;;21.17;;
83326;SDS011;73250;55.594;13.020;2023-11-19T01:21:47;30.65;;;23.67;;
83326;SDS011;73250;55.594;13.020;2023-11-19T01:24:14;26.58;;;20.48;;
83326;SDS011;73250;55.594;13.020;2023-11-19T01:26:41;29.83;;;22.33;;
83326;SDS011;73250;55.594;13.020;2023-11-19T01:29:10;32.63;;;24.95;;
83326;SDS011;73250;55.594;13.020;2023-11-19T01:31:38;28.73;;;21.77;;
83326;SDS011;73250;55.594;13.020;2023-11-19T01:34:06;29.70;;;22.33;;
83326;SDS011;73250;55.594;13.020;2023-11-19T01:36:33;33.22;;;25.27;;
83326;SDS011;73250;55.594;13.020;2023-11-19T01:39:00;25.77;;;21.02;;
83326;SDS011;73250;55.594;13.020;2023-11-19T01:41:26;30.38;;;23.50;;
83326;SDS011;73250;55.594;13.020;2023-11-19T01:43:53;29.13;;;22.90;;
83326;SDS011;73250;55.594;13.020;2023-11-19T01:46:20;28.48;;;22.17;;
83326;SDS011;73250;55.594;13.020;2023-11-19T01:48:46;23.85;;;19.27;;
83326;SDS011;73250;55.594;13.020;2023-11-19T01:51:15;34.83;;;26.08;;
83326;SDS011;73250;55.594;13.020;2023-11-19T01:53:43;24.33;;;19.42;;
83326;SDS011;73250;55.594;13.020;2023-11-19T01:56:11;28.40;;;21.60;;
83326;SDS011;73250;55.594;13.020;2023-11-19T01:58:40;28.23;;;22.80;;
83326;SDS011;73250;55.594;13.020;2023-11-19T02:01:09;22.88;;;19.25;;
83326;SDS011;73250;55.594;13.020;2023-11-19T02:03:37;31.30;;;23.60;;
83326;SDS011;73250;55.594;13.020;2023-11-19T02:06:04;41.58;;;29.45;;
83326;SDS011;73250;55.594;13.020;2023-11-19T02:08:33;36.45;;;26.95;;
83326;SDS011;73250;55.594;13.020;2023-11-19T02:11:00;28.55;;;22.42;;
83326;SDS011;73250;55.594;13.020;2023-11-19T02:13:27;36.15;;;26.70;;
83326;SDS011;73250;55.594;13.020;2023-11-19T02:15:54;27.42;;;20.75;;
83326;SDS011;73250;55.594;13.020;2023-11-19T02:18:21;32.75;;;24.80;;
83326;SDS011;73250;55.594;13.020;2023-11-19T02:20:49;39.47;;;27.98;;
83326;SDS011;73250;55.594;13.020;2023-11-19T02:23:16;35.15;;;26.55;;
83326;SDS011;73250;55.594;13.020;2023-11-19T02:25:47;32.70;;;24.48;;
83326;SDS011;73250;55.594;13.020;2023-11-19T02:28:19;38.63;;;26.63;;
83326;SDS011;73250;55.594;13.020;2023-11-19T02:30:45;33.22;;;25.67;;
83326;SDS011;73250;55.594;13.020;2023-11-19T02:33:12;41.78;;;31.75;;
83326;SDS011;73250;55.594;13.020;2023-11-19T02:35:40;32.85;;;25.73;;
83326;SDS011;73250;55.594;13.020;2023-11-19T02:38:07;33.65;;;25.42;;
83326;SDS011;73250;55.594;13.020;2023-11-19T02:40:34;33.50;;;26.58;;
83326;SDS011;73250;55.594;13.020;2023-11-19T02:43:00;31.50;;;22.98;;
83326;SDS011;73250;55.594;13.020;2023-11-19T02:45:31;35.53;;;28.17;;
83326;SDS011;73250;55.594;13.020;2023-11-19T02:47:58;33.88;;;26.02;;
83326;SDS011;73250;55.594;13.020;2023-11-19T02:50:26;29.17;;;23.33;;
83326;SDS011;73250;55.594;13.020;2023-11-19T02:52:53;35.65;;;27.65;;
83326;SDS011;73250;55.594;13.020;2023-11-19T02:55:22;39.33;;;28.98;;
83326;SDS011;73250;55.594;13.020;2023-11-19T02:57:49;32.65;;;25.20;;
83326;SDS011;73250;55.594;13.020;2023-11-19T03:00:18;37.40;;;29.27;;
83326;SDS011;73250;55.594;13.020;2023-11-19T03:02:50;35.80;;;25.83;;
83326;SDS011;73250;55.594;13.020;2023-11-19T03:05:24;36.97;;;26.85;;
83326;SDS011;73250;55.594;13.020;2023-11-19T03:07:51;37.50;;;28.88;;
83326;SDS011;73250;55.594;13.020;2023-11-19T03:10:17;33.08;;;25.73;;
83326;SDS011;73250;55.594;13.020;2023-11-19T03:12:44;37.65;;;28.75;;
83326;SDS011;73250;55.594;13.020;2023-11-19T03:15:11;42.53;;;31.52;;
83326;SDS011;73250;55.594;13.020;2023-11-19T03:17:38;36.60;;;27.70;;
83326;SDS011;73250;55.594;13.020;2023-11-19T03:20:07;40.70;;;29.95;;
83326;SDS011;73250;55.594;13.020;2023-11-19T03:22:36;36.28;;;28.50;;
83326;SDS011;73250;55.594;13.020;2023-11-19T03:25:03;33.72;;;25.13;;
83326;SDS011;73250;55.594;13.020;2023-11-19T03:27:33;30.48;;;23.50;;
83326;SDS011;73250;55.594;13.020;2023-11-19T03:30:00;33.20;;;25.35;;
83326;SDS011;73250;55.594;13.020;2023-11-19T03:32:27;32.10;;;24.50;;
83326;SDS011;73250;55.594;13.020;2023-11-19T03:34:54;32.72;;;25.35;;
83326;SDS011;73250;55.594;13.020;2023-11-19T03:37:22;31.27;;;24.73;;
83326;SDS011;73250;55.594;13.020;2023-11-19T03:39:50;42.17;;;30.17;;
83326;SDS011;73250;55.594;13.020;2023-11-19T03:42:17;29.45;;;22.73;;
83326;SDS011;73250;55.594;13.020;2023-11-19T03:44:45;34.28;;;25.05;;
83326;SDS011;73250;55.594;13.020;2023-11-19T03:47:12;31.50;;;24.40;;
83326;SDS011;73250;55.594;13.020;2023-11-19T03:49:38;33.92;;;26.02;;
83326;SDS011;73250;55.594;13.020;2023-11-19T03:52:05;29.42;;;24.45;;
83326;SDS011;73250;55.594;13.020;2023-11-19T03:54:33;39.05;;;30.67;;
83326;SDS011;73250;55.594;13.020;2023-11-19T03:57:00;33.03;;;25.10;;
83326;SDS011;73250;55.594;13.020;2023-11-19T03:59:28;37.28;;;27.67;;
83326;SDS011;73250;55.594;13.020;2023-11-19T04:01:55;41.35;;;31.70;;
83326;SDS011;73250;55.594;13.020;2023-11-19T04:04:22;38.75;;;30.15;;
83326;SDS011;73250;55.594;13.020;2023-11-19T04:06:48;38.22;;;29.38;;
83326;SDS011;73250;55.594;13.020;2023-11-19T04:09:15;34.10;;;24.60;;
83326;SDS011;73250;55.594;13.020;2023-11-19T04:11:43;40.90;;;29.75;;
83326;SDS011;73250;55.594;13.020;2023-11-19T04:14:12;37.15;;;28.42;;
83326;SDS011;73250;55.594;13.020;2023-11-19T04:16:38;31.75;;;24.92;;
83326;SDS011;73250;55.594;13.020;2023-11-19T04:19:05;33.67;;;25.63;;
83326;SDS011;73250;55.594;13.020;2023-11-19T04:21:32;37.10;;;27.90;;
83326;SDS011;73250;55.594;13.020;2023-11-19T04:23:59;33.20;;;25.75;;
83326;SDS011;73250;55.594;13.020;2023-11-19T04:26:25;39.67;;;28.48;;
83326;SDS011;73250;55.594;13.020;2023-11-19T04:28:54;34.05;;;25.35;;
83326;SDS011;73250;55.594;13.020;2023-11-19T04:31:20;32.55;;;24.83;;
83326;SDS011;73250;55.594;13.020;2023-11-19T04:33:47;34.60;;;25.65;;
83326;SDS011;73250;55.594;13.020;2023-11-19T04:36:18;30.00;;;24.50;;
83326;SDS011;73250;55.594;13.020;2023-11-19T04:38:45;30.20;;;24.63;;
83326;SDS011;73250;55.594;13.020;2023-11-19T04:41:11;31.98;;;24.73;;
83326;SDS011;73250;55.594;13.020;2023-11-19T04:43:39;36.72;;;28.63;;
83326;SDS011;73250;55.594;13.020;2023-11-19T04:46:07;36.58;;;26.77;;
83326;SDS011;73250;55.594;13.020;2023-11-19T04:48:36;30.75;;;22.98;;
83326;SDS011;73250;55.594;13.020;2023-11-19T04:51:04;37.58;;;28.30;;
83326;SDS011;73250;55.594;13.020;2023-11-19T04:53:31;40.20;;;30.23;;
83326;SDS011;73250;55.594;13.020;2023-11-19T04:55:58;30.75;;;23.33;;
83326;SDS011;73250;55.594;13.020;2023-11-19T04:58:24;34.22;;;26.63;;
83326;SDS011;73250;55.594;13.020;2023-11-19T05:00:51;37.03;;;27.15;;
83326;SDS011;73250;55.594;13.020;2023-11-19T05:03:19;39.00;;;27.67;;
83326;SDS011;73250;55.594;13.020;2023-11-19T05:05:48;31.48;;;24.63;;
83326;SDS011;73250;55.594;13.020;2023-11-19T05:08:15;33.97;;;26.30;;
83326;SDS011;73250;55.594;13.020;2023-11-19T05:10:42;40.67;;;31.17;;
83326;SDS011;73250;55.594;13.020;2023-11-19T05:13:08;39.92;;;29.10;;
83326;SDS011;73250;55.594;13.020;2023-11-19T05:15:35;38.83;;;29.80;;
83326;SDS011;73250;55.594;13.020;2023-11-19T05:18:03;33.80;;;26.20;;
83326;SDS011;73250;55.594;13.020;2023-11-19T05:20:32;34.58;;;26.65;;
83326;SDS011;73250;55.594;13.020;2023-11-19T05:22:58;38.22;;;28.48;;
83326;SDS011;73250;55.594;13.020;2023-11-19T05:25:25;33.60;;;24.17;;
83326;SDS011;73250;55.594;13.020;2023-11-19T05:27:52;29.92;;;23.30;;
83326;SDS011;73250;55.594;13.020;2023-11-19T05:30:19;36.72;;;27.75;;
83326;SDS011;73250;55.594;13.020;2023-11-19T05:32:46;30.10;;;22.52;;
83326;SDS011;73250;55.594;13.020;2023-11-19T05:35:13;33.45;;;25.05;;
83326;SDS011;73250;55.594;13.020;2023-11-19T05:37:43;30.60;;;23.42;;
83326;SDS011;73250;55.594;13.020;2023-11-19T05:40:10;31.30;;;23.15;;
83326;SDS011;73250;55.594;13.020;2023-11-19T05:42:39;34.63;;;26.08;;
83326;SDS011;73250;55.594;13.020;2023-11-19T05:45:06;35.20;;;27.38;;
83326;SDS011;73250;55.594;13.020;2023-11-19T05:47:34;30.45;;;24.63;;
83326;SDS011;73250;55.594;13.020;2023-11-19T05:50:01;37.83;;;29.27;;
83326;SDS011;73250;55.594;13.020;2023-11-19T05:52:28;32.17;;;24.60;;
83326;SDS011;73250;55.594;13.020;2023-11-19T05:54:59;26.23;;;21.10;;
83326;SDS011;73250;55.594;13.020;2023-11-19T05:57:28;30.70;;;23.92;;
83326;SDS011;73250;55.594;13.020;2023-11-19T05:59:55;28.23;;;21.65;;
83326;SDS011;73250;55.594;13.020;2023-11-19T06:02:23;28.45;;;22.60;;
83326;SDS011;73250;55.594;13.020;2023-11-19T06:04:50;28.85;;;22.92;;
83326;SDS011;73250;55.594;13.020;2023-11-19T06:07:17;25.75;;;21.30;;
83326;SDS011;73250;55.594;13.020;2023-11-19T06:09:43;27.20;;;21.42;;
83326;SDS011;73250;55.594;13.020;2023-11-19T06:12:11;26.77;;;22.15;;
83326;SDS011;73250;55.594;13.020;2023-11-19T06:14:39;30.35;;;22.58;;
83326;SDS011;73250;55.594;13.020;2023-11-19T06:17:06;26.05;;;20.38;;
83326;SDS011;73250;55.594;13.020;2023-11-19T06:19:33;22.65;;;18.70;;
83326;SDS011;73250;55.594;13.020;2023-11-19T06:22:00;28.35;;;21.13;;
83326;SDS011;73250;55.594;13.020;2023-11-19T06:24:26;26.25;;;20.88;;
83326;SDS011;73250;55.594;13.020;2023-11-19T06:26:53;24.40;;;20.05;;
83326;SDS011;73250;55.594;13.020;2023-11-19T06:29:21;29.58;;;22.42;;
83326;SDS011;73250;55.594;13.020;2023-11-19T06:31:48;27.05;;;21.00;;
83326;SDS011;73250;55.594;13.020;2023-11-19T06:34:14;23.23;;;18.83;;
83326;SDS011;73250;55.594;13.020;2023-11-19T06:36:41;29.33;;;22.35;;
83326;SDS011;73250;55.594;13.020;2023-11-19T06:39:08;26.00;;;20.58;;
83326;SDS011;73250;55.594;13.020;2023-11-19T06:41:35;31.90;;;24.73;;
83326;SDS011;73250;55.594;13.020;2023-11-19T06:44:02;24.75;;;18.27;;
83326;SDS011;73250;55.594;13.020;2023-11-19T06:46:31;25.92;;;18.13;;
83326;SDS011;73250;55.594;13.020;2023-11-19T06:48:57;25.75;;;20.20;;
83326;SDS011;73250;55.594;13.020;2023-11-19T06:51:24;25.75;;;18.70;;
83326;SDS011;73250;55.594;13.020;2023-11-19T06:53:51;27.35;;;21.65;;
83326;SDS011;73250;55.594;13.020;2023-11-19T06:56:19;27.23;;;21.55;;
83326;SDS011;73250;55.594;13.020;2023-11-19T06:58:46;21.98;;;18.52;;
83326;SDS011;73250;55.594;13.020;2023-11-19T07:01:13;27.10;;;20.33;;
83326;SDS011;73250;55.594;13.020;2023-11-19T07:03:41;30.73;;;23.42;;
83326;SDS011;73250;55.594;13.020;2023-11-19T07:06:09;38.25;;;28.13;;
83326;SDS011;73250;55.594;13.020;2023-11-19T07:08:38;25.35;;;19.10;;
83326;SDS011;73250;55.594;13.020;2023-11-19T07:11:06;23.55;;;18.73;;
83326;SDS011;73250;55.594;13.020;2023-11-19T07:13:35;21.75;;;18.25;;
83326;SDS011;73250;55.594;13.020;2023-11-19T07:16:01;28.35;;;21.58;;
83326;SDS011;73250;55.594;13.020;2023-11-19T07:18:28;26.73;;;20.50;;
83326;SDS011;73250;55.594;13.020;2023-11-19T07:20:58;24.73;;;20.83;;
83326;SDS011;73250;55.594;13.020;2023-11-19T07:23:25;25.60;;;20.38;;
83326;SDS011;73250;55.594;13.020;2023-11-19T07:25:52;24.67;;;19.73;;
83326;SDS011;73250;55.594;13.020;2023-11-19T07:28:18;23.40;;;18.23;;
83326;SDS011;73250;55.594;13.020;2023-11-19T07:30:45;23.35;;;18.20;;
83326;SDS011;73250;55.594;13.020;2023-11-19T07:33:12;28.15;;;22.17;;
83326;SDS011;73250;55.594;13.020;2023-11-19T07:35:39;25.95;;;19.73;;
83326;SDS011;73250;55.594;13.020;2023-11-19T07:38:08;22.48;;;18.27;;
83326;SDS011;73250;55.594;13.020;2023-11-19T07:40:35;23.50;;;18.08;;
83326;SDS011;73250;55.594;13.020;2023-11-19T07:43:02;21.85;;;18.00;;
83326;SDS011;73250;55.594;13.020;2023-11-19T07:45:28;24.15;;;18.50;;
83326;SDS011;73250;55.594;13.020;2023-11-19T07:47:55;21.58;;;17.27;;
83326;SDS011;73250;55.594;13.020;2023-11-19T07:50:22;21.55;;;17.33;;
83326;SDS011;73250;55.594;13.020;2023-11-19T07:52:49;21.50;;;16.52;;
83326;SDS011;73250;55.594;13.020;2023-11-19T07:55:17;22.65;;;18.17;;
83326;SDS011;73250;55.594;13.020;2023-11-19T07:57:44;20.35;;;16.65;;
83326;SDS011;73250;55.594;13.020;2023-11-19T08:00:11;20.75;;;16.38;;
83326;SDS011;73250;55.594;13.020;2023-11-19T08:02:39;23.05;;;17.63;;
83326;SDS011;73250;55.594;13.020;2023-11-19T08:05:06;23.88;;;17.63;;
83326;SDS011;73250;55.594;13.020;2023-11-19T08:07:33;24.83;;;20.10;;
83326;SDS011;73250;55.594;13.020;2023-11-19T08:09:59;21.60;;;17.23;;
83326;SDS011;73250;55.594;13.020;2023-11-19T08:12:27;21.45;;;17.73;;
83326;SDS011;73250;55.594;13.020;2023-11-19T08:14:54;21.20;;;17.13;;
83326;SDS011;73250;55.594;13.020;2023-11-19T08:17:21;20.77;;;16.63;;
83326;SDS011;73250;55.594;13.020;2023-11-19T08:19:48;21.30;;;17.48;;
83326;SDS011;73250;55.594;13.020;2023-11-19T08:22:14;19.08;;;15.82;;
83326;SDS011;73250;55.594;13.020;2023-11-19T08:24:41;23.08;;;18.15;;
83326;SDS011;73250;55.594;13.020;2023-11-19T08:27:08;23.63;;;19.02;;
83326;SDS011;73250;55.594;13.020;2023-11-19T08:29:36;19.45;;;16.67;;
83326;SDS011;73250;55.594;13.020;2023-11-19T08:32:03;24.08;;;18.27;;
83326;SDS011;73250;55.594;13.020;2023-11-19T08:34:31;20.02;;;15.70;;
83326;SDS011;73250;55.594;13.020;2023-11-19T08:36:58;22.45;;;17.55;;
83326;SDS011;73250;55.594;13.020;2023-11-19T08:39:25;20.98;;;15.98;;
83326;SDS011;73250;55.594;13.020;2023-11-19T08:41:52;17.00;;;14.50;;
83326;SDS011;73250;55.594;13.020;2023-11-19T08:44:20;21.35;;;17.90;;
83326;SDS011;73250;55.594;13.020;2023-11-19T08:46:48;18.67;;;15.55;;
83326;SDS011;73250;55.594;13.020;2023-11-19T08:49:15;18.02;;;15.02;;
83326;SDS011;73250;55.594;13.020;2023-11-19T08:51:42;20.20;;;16.02;;
83326;SDS011;73250;55.594;13.020;2023-11-19T08:54:09;21.83;;;16.63;;
83326;SDS011;73250;55.594;13.020;2023-11-19T08:56:37;20.67;;;16.83;;
83326;SDS011;73250;55.594;13.020;2023-11-19T08:59:04;18.52;;;14.85;;
83326;SDS011;73250;55.594;13.020;2023-11-19T09:01:31;19.13;;;14.70;;
83326;SDS011;73250;55.594;13.020;2023-11-19T09:03:59;20.27;;;16.02;;
83326;SDS011;73250;55.594;13.020;2023-11-19T09:06:26;18.75;;;15.43;;
83326;SDS011;73250;55.594;13.020;2023-11-19T09:08:52;18.17;;;14.50;;
83326;SDS011;73250;55.594;13.020;2023-11-19T09:11:23;21.65;;;16.48;;
83326;SDS011;73250;55.594;13.020;2023-11-19T09:13:49;18.25;;;14.20;;
83326;SDS011;73250;55.594;13.020;2023-11-19T09:16:16;19.45;;;14.65;;
83326;SDS011;73250;55.594;13.020;2023-11-19T09:18:43;18.33;;;15.63;;
83326;SDS011;73250;55.594;13.020;2023-11-19T09:21:11;21.73;;;15.93;;
83326;SDS011;73250;55.594;13.020;2023-11-19T09:23:38;18.30;;;14.68;;
83326;SDS011;73250;55.594;13.020;2023-11-19T09:26:05;19.48;;;15.57;;
83326;SDS011;73250;55.594;13.020;2023-11-19T09:28:35;18.00;;;14.85;;
83326;SDS011;73250;55.594;13.020;2023-11-19T09:31:01;20.92;;;16.10;;
83326;SDS011;73250;55.594;13.020;2023-11-19T09:33:29;18.48;;;15.63;;
83326;SDS011;73250;55.594;13.020;2023-11-19T09:35:56;19.42;;;15.98;;
83326;SDS011;73250;55.594;13.020;2023-11-19T09:38:25;19.92;;;15.27;;
83326;SDS011;73250;55.594;13.020;2023-11-19T09:40:51;22.88;;;17.83;;
83326;SDS011;73250;55.594;13.020;2023-11-19T09:43:18;23.10;;;17.13;;
83326;SDS011;73250;55.594;13.020;2023-11-19T09:45:47;19.85;;;15.18;;
83326;SDS011;73250;55.594;13.020;2023-11-19T09:48:16;19.17;;;14.73;;
83326;SDS011;73250;55.594;13.020;2023-11-19T09:50:44;20.13;;;16.73;;
83326;SDS011;73250;55.594;13.020;2023-11-19T09:53:11;17.88;;;14.65;;
83326;SDS011;73250;55.594;13.020;2023-11-19T09:55:39;19.15;;;14.38;;
83326;SDS011;73250;55.594;13.020;2023-11-19T09:58:06;20.95;;;16.48;;
83326;SDS011;73250;55.594;13.020;2023-11-19T10:00:34;20.23;;;16.45;;
83326;SDS011;73250;55.594;13.020;2023-11-19T10:03:00;24.65;;;17.55;;
83326;SDS011;73250;55.594;13.020;2023-11-19T10:05:30;17.75;;;13.75;;
83326;SDS011;73250;55.594;13.020;2023-11-19T10:07:57;19.27;;;14.55;;
83326;SDS011;73250;55.594;13.020;2023-11-19T10:10:24;18.27;;;14.73;;
83326;SDS011;73250;55.594;13.020;2023-11-19T10:12:52;22.13;;;16.35;;
83326;SDS011;73250;55.594;13.020;2023-11-19T10:15:19;20.08;;;15.73;;
83326;SDS011;73250;55.594;13.020;2023-11-19T10:17:47;18.92;;;15.45;;
83326;SDS011;73250;55.594;13.020;2023-11-19T10:20:14;17.08;;;13.98;;
83326;SDS011;73250;55.594;13.020;2023-11-19T10:22:41;19.10;;;14.82;;
83326;SDS011;73250;55.594;13.020;2023-11-19T10:25:15;21.25;;;17.15;;
83326;SDS011;73250;55.594;13.020;2023-11-19T10:27:48;16.00;;;13.80;;
83326;SDS011;73250;55.594;13.020;2023-11-19T10:30:18;22.73;;;16.35;;
83326;SDS011;73250;55.594;13.020;2023-11-19T10:32:50;17.58;;;13.75;;
83326;SDS011;73250;55.594;13.020;2023-11-19T10:35:29;18.30;;;14.48;;
83326;SDS011;73250;55.594;13.020;2023-11-19T10:37:55;17.70;;;14.32;;
83326;SDS011;73250;55.594;13.020;2023-11-19T10:40:25;20.55;;;15.13;;
83326;SDS011;73250;55.594;13.020;2023-11-19T10:43:04;19.55;;;14.85;;
83326;SDS011;73250;55.594;13.020;2023-11-19T10:45:34;18.30;;;14.75;;
83326;SDS011;73250;55.594;13.020;2023-11-19T10:47:59;18.98;;;16.20;;
83326;SDS011;73250;55.594;13.020;2023-11-19T10:50:27;19.02;;;14.63;;
83326;SDS011;73250;55.594;13.020;2023-11-19T10:52:55;16.80;;;13.68;;
83326;SDS011;73250;55.594;13.020;2023-11-19T10:55:26;17.30;;;14.27;;
83326;SDS011;73250;55.594;13.020;2023-11-19T10:57:54;17.27;;;14.23;;
83326;SDS011;73250;55.594;13.020;2023-11-19T11:00:25;21.35;;;16.17;;
83326;SDS011;73250;55.594;13.020;2023-11-19T11:02:56;22.05;;;16.63;;
83326;SDS011;73250;55.594;13.020;2023-11-19T11:05:26;17.75;;;14.13;;
83326;SDS011;73250;55.594;13.020;2023-11-19T11:07:55;19.83;;;16.33;;
83326;SDS011;73250;55.594;13.020;2023-11-19T11:10:22;19.73;;;15.60;;
83326;SDS011;73250;55.594;13.020;2023-11-19T11:12:52;18.30;;;14.23;;
83326;SDS011;73250;55.594;13.020;2023-11-19T11:15:23;21.23;;;16.58;;
83326;SDS011;73250;55.594;13.020;2023-11-19T11:17:52;19.92;;;14.32;;
83326;SDS011;73250;55.594;13.020;2023-11-19T11:20:25;16.65;;;14.05;;
83326;SDS011;73250;55.594;13.020;2023-11-19T11:22:54;18.95;;;15.77;;
83326;SDS011;73250;55.594;13.020;2023-11-19T11:25:32;16.05;;;12.57;;
83326;SDS011;73250;55.594;13.020;2023-11-19T11:28:13;17.83;;;14.52;;
83326;SDS011;73250;55.594;13.020;2023-11-19T11:30:52;15.68;;;13.32;;
83326;SDS011;73250;55.594;13.020;2023-11-19T11:33:35;17.90;;;14.40;;
83326;SDS011;73250;55.594;13.020;2023-11-19T11:36:13;16.98;;;13.85;;
83326;SDS011;73250;55.594;13.020;2023-11-19T11:38:46;21.63;;;15.50;;
83326;SDS011;73250;55.594;13.020;2023-11-19T11:41:15;18.73;;;14.73;;
83326;SDS011;73250;55.594;13.020;2023-11-19T11:43:44;18.02;;;14.50;;
83326;SDS011;73250;55.594;13.020;2023-11-19T11:49:12;17.10;;;13.93;;
83326;SDS011;73250;55.594;13.020;2023-11-19T11:51:59;18.42;;;14.55;;
83326;SDS011;73250;55.594;13.020;2023-11-19T11:54:32;16.27;;;13.10;;
83326;SDS011;73250;55.594;13.020;2023-11-19T11:57:03;18.00;;;13.52;;
83326;SDS011;73250;55.594;13.020;2023-11-19T11:59:36;18.98;;;15.52;;
83326;SDS011;73250;55.594;13.020;2023-11-19T12:02:09;18.60;;;14.90;;
83326;SDS011;73250;55.594;13.020;2023-11-19T12:04:38;21.55;;;16.80;;
83326;SDS011;73250;55.594;13.020;2023-11-19T12:07:06;18.00;;;14.55;;
83326;SDS011;73250;55.594;13.020;2023-11-19T12:09:36;19.45;;;14.35;;
83326;SDS011;73250;55.594;13.020;2023-11-19T12:12:13;15.90;;;13.35;;
83326;SDS011;73250;55.594;13.020;2023-11-19T12:15:00;16.08;;;12.68;;
83326;SDS011;73250;55.594;13.020;2023-11-19T12:17:40;19.45;;;14.82;;
83326;SDS011;73250;55.594;13.020;2023-11-19T12:20:16;18.77;;;14.60;;
83326;SDS011;73250;55.594;13.020;2023-11-19T12:22:45;18.30;;;13.98;;
83326;SDS011;73250;55.594;13.020;2023-11-19T12:25:14;16.50;;;13.10;;
83326;SDS011;73250;55.594;13.020;2023-11-19T12:27:42;16.40;;;13.30;;
83326;SDS011;73250;55.594;13.020;2023-11-19T12:30:11;17.58;;;13.73;;
83326;SDS011;73250;55.594;13.020;2023-11-19T12:32:39;18.23;;;13.65;;
83326;SDS011;73250;55.594;13.020;2023-11-19T12:35:06;17.08;;;13.63;;
83326;SDS011;73250;55.594;13.020;2023-11-19T12:37:40;18.88;;;14.20;;
83326;SDS011;73250;55.594;13.020;2023-11-19T12:40:11;17.88;;;13.88;;
83326;SDS011;73250;55.594;13.020;2023-11-19T12:42:40;19.25;;;14.70;;
83326;SDS011;73250;55.594;13.020;2023-11-19T12:45:08;19.10;;;14.70;;
83326;SDS011;73250;55.594;13.020;2023-11-19T12:47:35;17.50;;;13.95;;
83326;SDS011;73250;55.594;13.020;2023-11-19T12:50:03;17.05;;;13.40;;
83326;SDS011;73250;55.594;13.020;2023-11-19T12:52:30;23.40;;;17.60;;
83326;SDS011;73250;55.594;13.020;2023-11-19T12:54:59;16.95;;;14.00;;
83326;SDS011;73250;55.594;13.020;2023-11-19T12:57:38;15.65;;;13.90;;
83326;SDS011;73250;55.594;13.020;2023-11-19T13:00:06;17.70;;;15.75;;
83326;SDS011;73250;55.594;13.020;2023-11-19T13:02:45;16.38;;;13.75;;
83326;SDS011;73250;55.594;13.020;2023-11-19T13:05:20;20.33;;;15.38;;
83326;SDS011;73250;55.594;13.020;2023-11-19T13:08:00;15.40;;;13.35;;
83326;SDS011;73250;55.594;13.020;2023-11-19T13:10:29;17.83;;;14.23;;
83326;SDS011;73250;55.594;13.020;2023-11-19T13:13:00;19.48;;;15.13;;
83326;SDS011;73250;55.594;13.020;2023-11-19T13:15:27;16.77;;;14.00;;
83326;SDS011;73250;55.594;13.020;2023-11-19T13:17:54;17.60;;;12.98;;
83326;SDS011;73250;55.594;13.020;2023-11-19T13:20:21;16.17;;;12.98;;
83326;SDS011;73250;55.594;13.020;2023-11-19T13:22:57;17.73;;;13.68;;
83326;SDS011;73250;55.594;13.020;2023-11-19T13:25:24;19.45;;;14.40;;
83326;SDS011;73250;55.594;13.020;2023-11-19T13:27:52;19.20;;;14.85;;
83326;SDS011;73250;55.594;13.020;2023-11-19T13:30:19;18.25;;;13.85;;
83326;SDS011;73250;55.594;13.020;2023-11-19T13:32:47;15.88;;;12.63;;
83326;SDS011;73250;55.594;13.020;2023-11-19T13:35:14;18.00;;;14.07;;
83326;SDS011;73250;55.594;13.020;2023-11-19T13:37:42;18.15;;;14.73;;
83326;SDS011;73250;55.594;13.020;2023-11-19T13:40:09;17.80;;;14.43;;
83326;SDS011;73250;55.594;13.020;2023-11-19T13:42:39;19.23;;;14.50;;
83326;SDS011;73250;55.594;13.020;2023-11-19T13:45:08;19.63;;;15.18;;
83326;SDS011;73250;55.594;13.020;2023-11-19T13:47:38;17.90;;;14.13;;
83326;SDS011;73250;55.594;13.020;2023-11-19T13:50:06;19.73;;;16.23;;
83326;SDS011;73250;55.594;13.020;2023-11-19T13:52:34;25.88;;;20.85;;
83326;SDS011;73250;55.594;13.020;2023-11-19T13:55:03;32.05;;;23.90;;
83326;SDS011;73250;55.594;13.020;2023-11-19T13:57:31;21.90;;;17.05;;
83326;SDS011;73250;55.594;13.020;2023-11-19T13:59:58;21.00;;;16.52;;
83326;SDS011;73250;55.594;13.020;2023-11-19T14:02:25;19.17;;;15.57;;
83326;SDS011;73250;55.594;13.020;2023-11-19T14:04:52;18.13;;;14.52;;
83326;SDS011;73250;55.594;13.020;2023-11-19T14:07:19;39.33;;;29.52;;
83326;SDS011;73250;55.594;13.020;2023-11-19T14:09:45;23.20;;;19.35;;
83326;SDS011;73250;55.594;13.020;2023-11-19T14:12:12;22.35;;;17.13;;
83326;SDS011;73250;55.594;13.020;2023-11-19T14:14:39;23.85;;;17.02;;
83326;SDS011;73250;55.594;13.020;2023-11-19T14:17:07;20.25;;;15.15;;